| time (UTC) | temp F | wind direction | speed MPH | gust MPH | rain 1hr in | rain 24hr in | rain mn in | humidity % | barometer mb |
| 20260502210043 | 48 | 269 | 10.0 | 0.0 | 0.00 | 0.00 | 0.00 | 38 | 987.4 |
| 20260502204517 | 48 | 261 | 10.0 | 0.0 | 0.00 | 0.00 | 0.00 | 40 | 987.6 |
| 20260502203035 | 48 | 261 | 11.0 | 0.0 | 0.00 | 0.00 | 0.00 | 43 | 988.0 |
| 20260502201517 | 48 | 262 | 10.0 | 0.0 | 0.00 | 0.00 | 0.00 | 43 | 988.0 |
| 20260502200041 | 48 | 259 | 9.0 | 0.0 | 0.00 | 0.00 | 0.00 | 43 | 988.0 |
| 20260502194517 | 47 | 262 | 9.0 | 0.0 | 0.00 | 0.00 | 0.00 | 44 | 988.5 |
| 20260502193030 | 47 | 266 | 10.0 | 0.0 | 0.00 | 0.00 | 0.00 | 44 | 988.5 |
| 20260502191517 | 47 | 264 | 10.0 | 0.0 | 0.00 | 0.00 | 0.00 | 44 | 988.5 |
| 20260502190041 | 47 | 273 | 9.0 | 0.0 | 0.00 | 0.00 | 0.00 | 44 | 988.5 |
| 20260502184517 | 47 | 279 | 10.0 | 0.0 | 0.00 | 0.00 | 0.00 | 44 | 988.6 |
| 20260502183037 | 47 | 275 | 9.0 | 0.0 | 0.00 | 0.00 | 0.00 | 42 | 988.6 |
| 20260502181517 | 46 | 277 | 9.0 | 0.0 | 0.00 | 0.00 | 0.00 | 42 | 988.6 |
| 20260502163037 | 45 | 280 | 10.0 | 0.0 | 0.00 | 0.00 | 0.00 | 41 | 987.9 |
| 20260502161518 | 44 | 283 | 9.0 | 0.0 | 0.00 | 0.00 | 0.00 | 41 | 987.9 |
| 20260502151518 | 42 | 289 | 8.0 | 0.0 | 0.00 | 0.00 | 0.00 | 45 | 988.2 |
| 20260502123035 | 35 | 322 | 6.0 | 0.0 | 0.00 | 0.00 | 0.00 | 79 | 988.8 |
| 20260502121517 | 34 | 324 | 6.0 | 0.0 | 0.00 | 0.00 | 0.00 | 79 | 988.8 |
| 20260502114517 | 33 | 321 | 5.0 | 0.0 | 0.00 | 0.00 | 0.00 | 86 | 988.7 |
| 20260502113038 | 32 | 323 | 4.0 | 0.0 | 0.00 | 0.00 | 0.00 | 88 | 988.5 |
| 20260502111518 | 31 | 321 | 4.0 | 0.0 | 0.00 | 0.00 | 0.00 | 88 | 988.5 |
| 20260502110043 | 31 | 319 | 4.0 | 0.0 | 0.00 | 0.00 | 0.00 | 88 | 988.5 |
| 20260502104517 | 31 | 313 | 4.0 | 0.0 | 0.00 | 0.00 | 0.00 | 86 | 988.3 |
| 20260502103036 | 31 | 319 | 4.0 | 0.0 | 0.00 | 0.00 | 0.00 | 88 | 988.6 |
| 20260502101518 | 31 | 325 | 4.0 | 0.0 | 0.00 | 0.00 | 0.00 | 88 | 988.6 |
| 20260502091517 | 31 | 326 | 5.0 | 0.0 | 0.00 | 0.00 | 0.00 | 85 | 988.2 |
| 20260502071517 | 32 | 326 | 6.0 | 0.0 | 0.00 | 0.00 | 0.00 | 72 | 987.6 |
| 20260502070039 | 32 | 326 | 6.0 | 0.0 | 0.00 | 0.00 | 0.00 | 72 | 987.6 |
| 20260502064517 | 33 | 322 | 6.0 | 0.0 | 0.00 | 0.00 | 0.00 | 65 | 988.3 |
| 20260502063037 | 33 | 328 | 6.0 | 0.0 | 0.00 | 0.00 | 0.00 | 69 | 988.2 |
| 20260502061517 | 33 | 328 | 6.0 | 0.0 | 0.00 | 0.00 | 0.00 | 69 | 988.2 |
| 20260502060047 | 33 | 330 | 7.0 | 0.0 | 0.00 | 0.00 | 0.00 | 69 | 988.2 |
| 20260502054517 | 34 | 332 | 7.0 | 0.0 | 0.00 | 0.00 | 0.00 | 63 | 987.6 |
| 20260502053036 | 34 | 331 | 7.0 | 0.0 | 0.00 | 0.00 | 0.00 | 67 | 988.2 |
| 20260502051517 | 35 | 328 | 8.0 | 0.0 | 0.00 | 0.00 | 0.00 | 67 | 988.2 |
| 20260502050043 | 36 | 331 | 7.0 | 0.0 | 0.00 | 0.00 | 0.00 | 67 | 988.2 |
| 20260502044518 | 36 | 328 | 7.0 | 0.0 | 0.00 | 0.00 | 0.00 | 68 | 987.5 |
| 20260502043035 | 36 | 324 | 6.0 | 0.0 | 0.00 | 0.00 | 0.00 | 68 | 987.6 |
| 20260502041517 | 35 | 330 | 6.0 | 0.0 | 0.00 | 0.00 | 0.00 | 68 | 987.6 |
| 20260502040041 | 35 | 332 | 7.0 | 0.0 | 0.00 | 0.00 | 0.00 | 68 | 987.6 |
| 20260502034517 | 35 | 331 | 6.0 | 0.0 | 0.00 | 0.00 | 0.00 | 60 | 987.4 |
| 20260502033036 | 36 | 342 | 7.0 | 0.0 | 0.00 | 0.00 | 0.00 | 70 | 986.9 |
| 20260502031517 | 36 | 347 | 8.0 | 0.0 | 0.00 | 0.00 | 0.00 | 70 | 986.9 |
| 20260502030042 | 36 | 343 | 8.0 | 0.0 | 0.00 | 0.00 | 0.00 | 70 | 986.9 |
| 20260502024517 | 37 | 335 | 6.0 | 0.0 | 0.00 | 0.00 | 0.00 | 60 | 986.2 |
| 20260502023035 | 37 | 338 | 7.0 | 0.0 | 0.00 | 0.00 | 0.00 | 68 | 987.0 |
| 20260502021517 | 36 | 334 | 6.0 | 0.0 | 0.00 | 0.00 | 0.00 | 68 | 987.0 |
| 20260502020038 | 37 | 332 | 6.0 | 0.0 | 0.00 | 0.00 | 0.00 | 68 | 987.0 |
| 20260502014517 | 37 | 334 | 6.0 | 0.0 | 0.00 | 0.00 | 0.00 | 62 | 986.9 |
| 20260502013033 | 38 | 328 | 6.0 | 0.0 | 0.00 | 0.00 | 0.00 | 62 | 986.9 |
| 20260502011516 | 40 | 328 | 7.0 | 0.0 | 0.00 | 0.00 | 0.00 | 62 | 987.0 |
| 20260502010035 | 40 | 329 | 7.0 | 0.0 | 0.00 | 0.00 | 0.00 | 62 | 987.0 |
| 20260502004516 | 40 | 328 | 6.0 | 0.0 | 0.00 | 0.00 | 0.00 | 54 | 987.5 |
| 20260502003034 | 41 | 323 | 9.0 | 0.0 | 0.00 | 0.00 | 0.00 | 57 | 988.1 |
| 20260502001517 | 41 | 321 | 9.0 | 0.0 | 0.00 | 0.00 | 0.00 | 57 | 988.1 |
| 20260502000043 | 42 | 314 | 9.0 | 0.0 | 0.00 | 0.00 | 0.00 | 57 | 988.1 |
| 20260501234517 | 42 | 301 | 7.0 | 0.0 | 0.00 | 0.00 | 0.00 | 49 | 986.7 |
| 20260501233030 | 43 | 308 | 8.0 | 0.0 | 0.00 | 0.00 | 0.00 | 47 | 987.4 |
| 20260501231517 | 44 | 300 | 8.0 | 0.0 | 0.00 | 0.00 | 0.00 | 47 | 987.4 |
| 20260501230038 | 44 | 290 | 8.0 | 0.0 | 0.00 | 0.00 | 0.00 | 47 | 987.4 |
| 20260501224517 | 44 | 293 | 8.0 | 0.0 | 0.00 | 0.00 | 0.00 | 49 | 986.2 |
| 20260501223034 | 44 | 273 | 8.0 | 0.0 | 0.00 | 0.00 | 0.00 | 52 | 987.2 |
| 20260501221517 | 44 | 275 | 7.0 | 0.0 | 0.00 | 0.00 | 0.00 | 52 | 987.2 |
| 20260501220042 | 44 | 283 | 7.0 | 0.0 | 0.00 | 0.00 | 0.00 | 52 | 987.2 |
| 20260501214517 | 44 | 287 | 7.0 | 0.0 | 0.00 | 0.00 | 0.00 | 57 | 986.6 |
| 20260501213031 | 44 | 287 | 7.0 | 0.0 | 0.00 | 0.00 | 0.00 | 55 | 987.0 |
| 20260501211517 | 44 | 299 | 7.0 | 0.0 | 0.00 | 0.00 | 0.00 | 55 | 986.9 |